Time;durP1;ratioP1;P1;durP2;ratioP2;P2;SDS_P1;SDS_P2;PMS_P1;PMS_P2;Temp;Humidity;BMP_temperature;BMP_pressure;BME280_temperature;BME280_humidity;BME280_pressure;Samples;Min_cycle;Max_cycle;Signal;HPM_P1;HPM_P2
2023/11/26 00:01:09;;;;;;;26.13;24.23;;;;;;;;;;5071226;28;20226;-77
2023/11/26 00:03:38;;;;;;;26.35;24.30;;;;;;;;;;5071581;28;20206;-76
2023/11/26 00:06:07;;;;;;;25.30;23.40;;;;;;;;;;5070932;28;20824;-78
2023/11/26 00:08:34;;;;;;;26.48;24.48;;;;;;;;;;5071203;28;20671;-77
2023/11/26 00:11:01;;;;;;;27.80;25.83;;;;;;;;;;5071161;28;20215;-77
2023/11/26 00:13:28;;;;;;;28.45;26.05;;;;;;;;;;5070792;28;20721;-77
2023/11/26 00:15:55;;;;;;;30.27;27.60;;;;;;;;;;5070584;28;20264;-77
2023/11/26 00:18:22;;;;;;;43.65;29.45;;;;;;;;;;5071227;28;20222;-77
2023/11/26 00:20:51;;;;;;;33.28;29.23;;;;;;;;;;5071111;28;20208;-76
2023/11/26 00:23:18;;;;;;;29.40;26.70;;;;;;;;;;5071630;28;20211;-76
2023/11/26 00:25:45;;;;;;;59.25;29.75;;;;;;;;;;5070564;28;20206;-76
2023/11/26 00:28:12;;;;;;;72.68;28.63;;;;;;;;;;5071225;28;20234;-76
2023/11/26 00:30:39;;;;;;;37.28;27.80;;;;;;;;;;5071551;28;20188;-78
2023/11/26 00:33:06;;;;;;;30.88;27.45;;;;;;;;;;5071078;28;20204;-78
2023/11/26 00:35:33;;;;;;;57.60;29.08;;;;;;;;;;5070688;28;20208;-76
2023/11/26 00:38:02;;;;;;;47.25;26.98;;;;;;;;;;5070998;28;20596;-77
2023/11/26 00:40:29;;;;;;;32.22;28.92;;;;;;;;;;5070643;28;20199;-76
2023/11/26 00:42:56;;;;;;;37.80;27.98;;;;;;;;;;5071225;28;20207;-78
2023/11/26 00:45:23;;;;;;;30.50;26.48;;;;;;;;;;5070982;28;20211;-77
2023/11/26 00:47:51;;;;;;;34.08;27.20;;;;;;;;;;5070664;28;20875;-77
2023/11/26 00:50:18;;;;;;;51.58;27.77;;;;;;;;;;5070581;28;20249;-78
2023/11/26 00:52:46;;;;;;;25.40;23.17;;;;;;;;;;5070740;28;20200;-76
2023/11/26 00:55:15;;;;;;;58.88;28.13;;;;;;;;;;5070550;28;20246;-76
2023/11/26 00:57:42;;;;;;;47.92;29.23;;;;;;;;;;5070798;28;20227;-78
2023/11/26 01:00:12;;;;;;;28.77;25.75;;;;;;;;;;5070980;28;20219;-78
2023/11/26 01:02:41;;;;;;;44.30;26.42;;;;;;;;;;5070807;28;20225;-77
2023/11/26 01:05:08;;;;;;;43.17;28.10;;;;;;;;;;5069125;28;20210;-77
2023/11/26 01:07:35;;;;;;;38.45;28.08;;;;;;;;;;5069731;28;20262;-77
2023/11/26 01:10:02;;;;;;;42.45;27.33;;;;;;;;;;5070364;28;20294;-76
2023/11/26 01:12:31;;;;;;;31.92;27.30;;;;;;;;;;5070159;28;20223;-76
2023/11/26 01:15:00;;;;;;;34.22;25.00;;;;;;;;;;5069989;28;20199;-78
2023/11/26 01:17:27;;;;;;;32.30;26.30;;;;;;;;;;5070743;28;20231;-77
2023/11/26 01:19:54;;;;;;;41.65;27.63;;;;;;;;;;5071018;28;20230;-76
2023/11/26 01:22:24;;;;;;;29.60;26.73;;;;;;;;;;5074346;28;20953;-77
2023/11/26 01:24:51;;;;;;;35.65;27.67;;;;;;;;;;5073881;28;20578;-77
2023/11/26 01:27:18;;;;;;;31.30;28.00;;;;;;;;;;5074644;28;20324;-77
2023/11/26 01:29:47;;;;;;;34.47;27.77;;;;;;;;;;5074871;28;20204;-77
2023/11/26 01:32:14;;;;;;;31.85;28.73;;;;;;;;;;5074764;28;20268;-77
2023/11/26 01:34:41;;;;;;;29.25;26.95;;;;;;;;;;5074150;28;20265;-76
2023/11/26 01:37:09;;;;;;;31.98;29.00;;;;;;;;;;5061584;28;20224;-77
2023/11/26 01:39:36;;;;;;;28.30;26.10;;;;;;;;;;5054266;28;20306;-77
2023/11/26 01:42:05;;;;;;;31.63;26.50;;;;;;;;;;5054422;28;20211;-77
2023/11/26 01:44:32;;;;;;;29.05;26.55;;;;;;;;;;5053498;28;20208;-76
2023/11/26 01:47:03;;;;;;;30.02;26.92;;;;;;;;;;5053694;28;20658;-77
2023/11/26 01:49:31;;;;;;;29.90;27.35;;;;;;;;;;5054034;28;20211;-78
2023/11/26 01:51:58;;;;;;;32.42;28.23;;;;;;;;;;5054077;28;20205;-77
2023/11/26 01:54:25;;;;;;;32.10;27.80;;;;;;;;;;5053109;28;20239;-77
2023/11/26 01:56:52;;;;;;;30.55;27.75;;;;;;;;;;5054141;28;20224;-76
2023/11/26 01:59:19;;;;;;;31.30;28.58;;;;;;;;;;5053903;28;20232;-76
2023/11/26 02:01:47;;;;;;;29.27;26.95;;;;;;;;;;5053644;28;20684;-76
2023/11/26 02:04:16;;;;;;;69.47;30.00;;;;;;;;;;5052712;28;20676;-77
2023/11/26 02:06:43;;;;;;;30.80;27.52;;;;;;;;;;5053550;28;20660;-77
2023/11/26 02:09:12;;;;;;;34.20;30.75;;;;;;;;;;5053784;28;20208;-77
2023/11/26 02:11:40;;;;;;;30.70;27.80;;;;;;;;;;5053085;28;20671;-77
2023/11/26 02:14:07;;;;;;;36.85;28.38;;;;;;;;;;5052822;28;20694;-76
2023/11/26 02:16:34;;;;;;;31.52;28.48;;;;;;;;;;5053424;28;20251;-77
2023/11/26 02:19:01;;;;;;;30.92;28.30;;;;;;;;;;5053369;28;20515;-77
2023/11/26 02:21:29;;;;;;;32.15;28.58;;;;;;;;;;5053368;28;20204;-76
2023/11/26 02:23:56;;;;;;;31.85;29.02;;;;;;;;;;5053275;28;20214;-77
2023/11/26 02:26:25;;;;;;;30.95;28.40;;;;;;;;;;5053282;28;20224;-77
2023/11/26 02:28:52;;;;;;;31.98;28.80;;;;;;;;;;5053147;28;20295;-77
2023/11/26 02:31:19;;;;;;;32.08;28.75;;;;;;;;;;5052842;28;20210;-77
2023/11/26 02:33:46;;;;;;;32.35;29.20;;;;;;;;;;5051805;28;20219;-76
2023/11/26 02:36:13;;;;;;;35.53;28.58;;;;;;;;;;5052875;28;20228;-77
2023/11/26 02:38:40;;;;;;;35.75;29.33;;;;;;;;;;5053264;28;20232;-77
2023/11/26 02:41:09;;;;;;;37.83;29.48;;;;;;;;;;5053120;28;20663;-77
2023/11/26 02:43:38;;;;;;;40.35;30.80;;;;;;;;;;5052938;28;20722;-77
2023/11/26 02:46:06;;;;;;;33.72;30.40;;;;;;;;;;5052495;28;20212;-76
2023/11/26 02:48:33;;;;;;;35.83;32.15;;;;;;;;;;5053052;28;20223;-76
2023/11/26 02:51:00;;;;;;;35.72;30.38;;;;;;;;;;5052597;28;20212;-76
2023/11/26 02:53:27;;;;;;;33.08;29.85;;;;;;;;;;5052914;28;20204;-77
2023/11/26 02:55:54;;;;;;;36.72;29.92;;;;;;;;;;5052543;28;20215;-77
2023/11/26 02:58:21;;;;;;;33.60;28.92;;;;;;;;;;5053157;28;20208;-76
2023/11/26 03:00:51;;;;;;;31.52;27.98;;;;;;;;;;5053345;28;20534;-76
2023/11/26 03:03:19;;;;;;;35.55;32.38;;;;;;;;;;5053053;28;20208;-77
2023/11/26 03:05:50;;;;;;;33.75;30.50;;;;;;;;;;5052425;28;20205;-77
2023/11/26 03:08:21;;;;;;;33.63;30.23;;;;;;;;;;5052679;28;20232;-77
2023/11/26 03:13:34;;;;;;;31.80;28.40;;;;;;;;;;5052663;28;20293;-77
2023/11/26 03:16:04;;;;;;;35.03;30.02;;;;;;;;;;5052430;28;20230;-77
2023/11/26 03:18:32;;;;;;;32.00;27.83;;;;;;;;;;5052945;28;20192;-77
2023/11/26 03:20:59;;;;;;;31.38;28.80;;;;;;;;;;5052210;28;20270;-78
2023/11/26 03:23:26;;;;;;;33.22;29.90;;;;;;;;;;5052934;28;20204;-78
2023/11/26 03:25:53;;;;;;;58.65;30.98;;;;;;;;;;5052002;28;20208;-77
2023/11/26 03:28:21;;;;;;;33.13;28.77;;;;;;;;;;5052415;28;20236;-78
2023/11/26 03:30:49;;;;;;;49.47;31.20;;;;;;;;;;5052069;28;20211;-78
2023/11/26 03:33:18;;;;;;;32.60;29.13;;;;;;;;;;5052452;28;20205;-78
2023/11/26 03:35:46;;;;;;;33.00;29.50;;;;;;;;;;5051689;28;20215;-78
2023/11/26 03:38:13;;;;;;;33.58;30.80;;;;;;;;;;5052013;28;20259;-77
2023/11/26 03:40:40;;;;;;;32.22;29.52;;;;;;;;;;5051785;28;20259;-78
2023/11/26 03:43:07;;;;;;;32.20;28.85;;;;;;;;;;5051435;28;20953;-76
2023/11/26 03:45:34;;;;;;;32.97;28.08;;;;;;;;;;5051657;28;20219;-76
2023/11/26 03:48:01;;;;;;;34.70;28.50;;;;;;;;;;5051957;28;20228;-76
2023/11/26 03:50:30;;;;;;;41.88;30.33;;;;;;;;;;5051850;28;20569;-77
2023/11/26 03:52:57;;;;;;;32.75;29.55;;;;;;;;;;5051680;28;20204;-76
2023/11/26 03:55:24;;;;;;;53.45;31.05;;;;;;;;;;5050967;28;20204;-77
2023/11/26 03:57:51;;;;;;;39.70;32.25;;;;;;;;;;5051448;28;20792;-77
2023/11/26 04:00:19;;;;;;;43.40;31.17;;;;;;;;;;5052002;28;20305;-76
2023/11/26 04:02:46;;;;;;;35.15;30.65;;;;;;;;;;5051935;28;20200;-77
2023/11/26 04:05:13;;;;;;;39.90;30.98;;;;;;;;;;5050757;28;20747;-77
2023/11/26 04:07:44;;;;;;;33.08;29.88;;;;;;;;;;5051767;28;20232;-77
2023/11/26 04:10:11;;;;;;;36.15;31.40;;;;;;;;;;5051853;28;20184;-76
2023/11/26 04:12:39;;;;;;;33.78;29.90;;;;;;;;;;5051125;28;20679;-78
2023/11/26 04:15:06;;;;;;;39.05;29.80;;;;;;;;;;5051049;28;20249;-77
2023/11/26 04:17:34;;;;;;;31.90;28.65;;;;;;;;;;5051873;28;20235;-77
2023/11/26 04:20:01;;;;;;;38.40;29.95;;;;;;;;;;5051647;28;20230;-76
2023/11/26 04:22:28;;;;;;;36.38;30.48;;;;;;;;;;5051383;28;20257;-76
2023/11/26 04:24:57;;;;;;;37.42;31.20;;;;;;;;;;5050885;28;20230;-77
2023/11/26 04:27:24;;;;;;;54.58;32.08;;;;;;;;;;5051366;28;20228;-77
2023/11/26 04:29:51;;;;;;;36.55;30.85;;;;;;;;;;5050965;28;20200;-77
2023/11/26 04:32:18;;;;;;;37.42;29.77;;;;;;;;;;5050943;28;20244;-77
2023/11/26 04:34:45;;;;;;;42.83;31.73;;;;;;;;;;5050998;28;20211;-77
2023/11/26 04:37:12;;;;;;;52.05;33.20;;;;;;;;;;5050872;28;20312;-76
2023/11/26 04:39:40;;;;;;;59.35;32.83;;;;;;;;;;5050837;28;20706;-76
2023/11/26 04:42:08;;;;;;;39.25;30.15;;;;;;;;;;5050962;28;20200;-77
2023/11/26 04:44:36;;;;;;;64.55;32.00;;;;;;;;;;5050490;28;20687;-77
2023/11/26 04:47:03;;;;;;;51.65;33.75;;;;;;;;;;5051187;28;20228;-77
2023/11/26 04:49:30;;;;;;;51.67;32.15;;;;;;;;;;5051103;28;20204;-76
2023/11/26 04:51:58;;;;;;;41.28;32.70;;;;;;;;;;5051290;28;20204;-76
2023/11/26 04:54:26;;;;;;;44.28;34.65;;;;;;;;;;5050817;28;20208;-77
2023/11/26 04:56:53;;;;;;;56.83;33.95;;;;;;;;;;5067360;28;20227;-76
2023/11/26 04:59:22;;;;;;;54.65;34.95;;;;;;;;;;5075242;28;20207;-78
2023/11/26 05:01:54;;;;;;;40.72;32.33;;;;;;;;;;5075090;28;20199;-78
2023/11/26 05:04:21;;;;;;;55.20;36.47;;;;;;;;;;5074812;28;20212;-77
2023/11/26 05:06:48;;;;;;;35.67;32.38;;;;;;;;;;5075057;28;20579;-78
2023/11/26 05:09:16;;;;;;;38.40;31.75;;;;;;;;;;5075416;28;20265;-77
2023/11/26 05:11:43;;;;;;;37.90;32.35;;;;;;;;;;5075125;28;20206;-78
2023/11/26 05:14:10;;;;;;;42.75;32.20;;;;;;;;;;5074042;28;20211;-77
2023/11/26 05:16:39;;;;;;;64.78;33.30;;;;;;;;;;5074731;28;20228;-77
2023/11/26 05:19:06;;;;;;;58.22;35.90;;;;;;;;;;5074516;28;20215;-77
2023/11/26 05:21:33;;;;;;;41.63;34.90;;;;;;;;;;5074812;28;20321;-77
2023/11/26 05:24:00;;;;;;;56.45;36.67;;;;;;;;;;5074161;28;20207;-78
2023/11/26 05:26:27;;;;;;;45.83;34.63;;;;;;;;;;5074716;28;20224;-76
2023/11/26 05:28:55;;;;;;;46.08;36.25;;;;;;;;;;5074546;28;20242;-77
2023/11/26 05:31:22;;;;;;;48.17;35.15;;;;;;;;;;5074333;28;20239;-78
2023/11/26 05:33:51;;;;;;;42.40;32.90;;;;;;;;;;5074505;28;20207;-80
2023/11/26 05:36:18;;;;;;;38.78;31.95;;;;;;;;;;5073931;28;20238;-77
2023/11/26 05:38:45;;;;;;;54.90;33.80;;;;;;;;;;5072551;28;20203;-78
2023/11/26 05:41:12;;;;;;;52.35;32.88;;;;;;;;;;5054880;28;20216;-76
2023/11/26 05:43:39;;;;;;;45.33;33.47;;;;;;;;;;5053820;28;20216;-78
2023/11/26 05:46:07;;;;;;;56.13;36.95;;;;;;;;;;5052880;28;20211;-76
2023/11/26 05:48:34;;;;;;;37.80;33.42;;;;;;;;;;5053392;28;20247;-76
2023/11/26 05:51:02;;;;;;;47.83;38.28;;;;;;;;;;5053307;28;20219;-76
2023/11/26 05:53:29;;;;;;;45.22;34.60;;;;;;;;;;5053972;28;20560;-76
2023/11/26 05:55:56;;;;;;;70.85;36.45;;;;;;;;;;5053267;28;20204;-77
2023/11/26 05:58:24;;;;;;;38.88;32.42;;;;;;;;;;5054185;28;20208;-78
2023/11/26 06:00:51;;;;;;;42.08;33.65;;;;;;;;;;5054066;28;20224;-76
2023/11/26 06:03:18;;;;;;;42.67;35.22;;;;;;;;;;5053799;28;20661;-77
2023/11/26 06:05:45;;;;;;;39.53;32.85;;;;;;;;;;5053036;28;20208;-77
2023/11/26 06:08:13;;;;;;;38.47;34.35;;;;;;;;;;5053495;28;20235;-77
2023/11/26 06:10:40;;;;;;;39.30;35.20;;;;;;;;;;5053693;28;20208;-77
2023/11/26 06:13:07;;;;;;;35.47;32.38;;;;;;;;;;5053034;28;20278;-78
2023/11/26 06:15:34;;;;;;;35.00;32.00;;;;;;;;;;5052987;28;20212;-77
2023/11/26 06:18:01;;;;;;;41.88;35.78;;;;;;;;;;5053766;28;20232;-76
2023/11/26 06:20:28;;;;;;;35.60;32.45;;;;;;;;;;5053390;28;20224;-77
2023/11/26 06:22:55;;;;;;;37.58;33.95;;;;;;;;;;5053826;28;20208;-78
2023/11/26 06:25:24;;;;;;;38.72;34.90;;;;;;;;;;5053151;28;20211;-77
2023/11/26 06:27:51;;;;;;;34.88;31.90;;;;;;;;;;5053449;28;20259;-76
2023/11/26 06:30:18;;;;;;;33.83;31.10;;;;;;;;;;5053228;28;20204;-76
2023/11/26 06:32:45;;;;;;;37.55;34.17;;;;;;;;;;5053091;28;20567;-77
2023/11/26 06:35:13;;;;;;;35.05;32.17;;;;;;;;;;5052592;28;20235;-76
2023/11/26 06:37:40;;;;;;;35.20;32.35;;;;;;;;;;5053017;28;20228;-79
2023/11/26 06:40:08;;;;;;;34.60;31.17;;;;;;;;;;5052776;28;20232;-77
2023/11/26 06:42:40;;;;;;;37.83;34.20;;;;;;;;;;5053168;28;20666;-76
2023/11/26 06:45:07;;;;;;;34.30;31.45;;;;;;;;;;5052245;28;20596;-78
2023/11/26 06:47:34;;;;;;;35.17;32.00;;;;;;;;;;5051972;28;20836;-77
2023/11/26 06:50:01;;;;;;;37.78;34.40;;;;;;;;;;5051847;28;20203;-77
2023/11/26 06:52:30;;;;;;;36.40;33.35;;;;;;;;;;5051718;28;20208;-77
2023/11/26 06:54:57;;;;;;;39.47;36.03;;;;;;;;;;5051369;28;20763;-77
2023/11/26 06:57:24;;;;;;;37.08;33.70;;;;;;;;;;5051837;28;20346;-77
2023/11/26 06:59:52;;;;;;;39.72;36.10;;;;;;;;;;5051689;28;20223;-78
2023/11/26 07:02:20;;;;;;;38.72;34.67;;;;;;;;;;5052682;28;20204;-78
2023/11/26 07:04:47;;;;;;;38.13;34.53;;;;;;;;;;5052333;28;20299;-77
2023/11/26 07:07:14;;;;;;;38.95;34.95;;;;;;;;;;5052582;28;20259;-77
2023/11/26 07:09:41;;;;;;;39.22;35.38;;;;;;;;;;5052887;28;20212;-78
2023/11/26 07:12:09;;;;;;;40.53;36.20;;;;;;;;;;5052443;28;20207;-76
2023/11/26 07:14:36;;;;;;;40.85;36.72;;;;;;;;;;5051256;28;20725;-77
2023/11/26 07:17:05;;;;;;;39.78;35.25;;;;;;;;;;5051774;28;20231;-77
2023/11/26 07:19:32;;;;;;;41.13;36.85;;;;;;;;;;5051602;28;20215;-77
2023/11/26 07:21:59;;;;;;;46.00;39.15;;;;;;;;;;5051743;28;20706;-76
2023/11/26 07:24:26;;;;;;;49.90;36.42;;;;;;;;;;5051330;28;20918;-76
2023/11/26 07:26:53;;;;;;;62.15;37.22;;;;;;;;;;5052217;28;20866;-77
2023/11/26 07:29:20;;;;;;;78.00;39.83;;;;;;;;;;5052275;28;20211;-77
2023/11/26 07:31:48;;;;;;;58.58;39.78;;;;;;;;;;5051535;28;20211;-77
2023/11/26 07:34:17;;;;;;;48.33;41.22;;;;;;;;;;5051672;28;20250;-77
2023/11/26 07:36:44;;;;;;;60.80;37.80;;;;;;;;;;5051665;28;20258;-76
2023/11/26 07:39:11;;;;;;;50.83;36.90;;;;;;;;;;5052014;28;20298;-77
2023/11/26 07:41:38;;;;;;;44.95;38.17;;;;;;;;;;5052087;28;20223;-76
2023/11/26 07:44:09;;;;;;;58.70;38.63;;;;;;;;;;5051330;28;20567;-77
2023/11/26 07:46:36;;;;;;;55.90;39.55;;;;;;;;;;5051628;28;20223;-77
2023/11/26 07:49:05;;;;;;;61.28;38.80;;;;;;;;;;5051877;28;20208;-76
2023/11/26 07:51:33;;;;;;;49.97;38.50;;;;;;;;;;5051454;28;20670;-77
2023/11/26 07:54:00;;;;;;;58.35;43.55;;;;;;;;;;5051467;28;20208;-76
2023/11/26 07:56:28;;;;;;;56.65;42.70;;;;;;;;;;5051865;28;20284;-77
2023/11/26 07:58:55;;;;;;;73.88;45.65;;;;;;;;;;5051774;28;20211;-77
2023/11/26 08:01:22;;;;;;;61.47;42.88;;;;;;;;;;5051594;28;20228;-76
2023/11/26 08:03:51;;;;;;;57.13;42.20;;;;;;;;;;5050594;28;20207;-78
2023/11/26 08:06:18;;;;;;;55.15;42.60;;;;;;;;;;5050991;28;20229;-77
2023/11/26 08:08:46;;;;;;;61.17;43.42;;;;;;;;;;5051457;28;20204;-77
2023/11/26 08:11:16;;;;;;;51.30;42.05;;;;;;;;;;5051513;28;20200;-77
2023/11/26 08:13:43;;;;;;;51.60;41.30;;;;;;;;;;5051254;28;20220;-78
2023/11/26 08:16:10;;;;;;;52.35;42.05;;;;;;;;;;5050466;28;20735;-77
2023/11/26 08:18:39;;;;;;;61.78;44.28;;;;;;;;;;5051189;28;20214;-76
2023/11/26 08:21:06;;;;;;;58.67;45.25;;;;;;;;;;5051207;28;20216;-78
2023/11/26 08:23:38;;;;;;;55.28;44.67;;;;;;;;;;5052121;28;20231;-77
2023/11/26 08:26:09;;;;;;;60.97;45.90;;;;;;;;;;5051258;28;20243;-78
2023/11/26 08:28:37;;;;;;;64.95;46.40;;;;;;;;;;5051730;28;20212;-77
2023/11/26 08:31:06;;;;;;;51.20;41.08;;;;;;;;;;5049925;28;20212;-77
2023/11/26 08:33:39;;;;;;;56.13;45.88;;;;;;;;;;5051419;28;20212;-78
2023/11/26 08:36:07;;;;;;;56.25;44.80;;;;;;;;;;5051042;28;20302;-77
2023/11/26 08:38:38;;;;;;;54.97;45.58;;;;;;;;;;5051341;28;20207;-77
2023/11/26 08:41:10;;;;;;;59.30;45.40;;;;;;;;;;5051185;28;20216;-77
2023/11/26 08:43:41;;;;;;;51.63;44.20;;;;;;;;;;5063963;28;20191;-76
2023/11/26 08:46:09;;;;;;;49.75;41.30;;;;;;;;;;5052611;28;20228;-76
2023/11/26 08:48:37;;;;;;;49.08;42.50;;;;;;;;;;5051294;28;20208;-76
2023/11/26 08:51:04;;;;;;;56.03;48.22;;;;;;;;;;5051084;28;20208;-77
2023/11/26 08:53:32;;;;;;;57.13;45.28;;;;;;;;;;5050888;28;20303;-77
2023/11/26 08:56:00;;;;;;;49.35;41.63;;;;;;;;;;5050484;28;20211;-76
2023/11/26 08:58:28;;;;;;;53.60;44.20;;;;;;;;;;5051275;28;20219;-77
2023/11/26 09:00:57;;;;;;;58.85;43.47;;;;;;;;;;5050982;28;20220;-76
2023/11/26 09:03:25;;;;;;;58.38;45.22;;;;;;;;;;5050547;28;20298;-77
2023/11/26 09:05:52;;;;;;;56.17;44.50;;;;;;;;;;5065225;28;20210;-78
2023/11/26 09:08:20;;;;;;;52.78;42.88;;;;;;;;;;5071103;28;20569;-77
2023/11/26 09:10:48;;;;;;;54.80;44.92;;;;;;;;;;5071259;28;20303;-76
2023/11/26 09:13:15;;;;;;;45.45;39.47;;;;;;;;;;5061474;28;20242;-77
2023/11/26 09:15:43;;;;;;;44.90;39.30;;;;;;;;;;5050043;28;20208;-79
2023/11/26 09:18:10;;;;;;;50.28;43.33;;;;;;;;;;5050675;28;20232;-76
2023/11/26 09:20:37;;;;;;;44.78;40.17;;;;;;;;;;5050788;28;20208;-76
2023/11/26 09:23:04;;;;;;;45.58;38.88;;;;;;;;;;5050590;28;20571;-76
2023/11/26 09:25:31;;;;;;;48.13;42.95;;;;;;;;;;5050120;28;20196;-77
2023/11/26 09:27:58;;;;;;;42.55;38.30;;;;;;;;;;5050964;28;20228;-77
2023/11/26 09:30:25;;;;;;;72.30;41.35;;;;;;;;;;5050743;28;20664;-77
2023/11/26 09:32:54;;;;;;;46.28;41.00;;;;;;;;;;5050912;28;20211;-78
2023/11/26 09:35:21;;;;;;;42.45;37.65;;;;;;;;;;5052430;28;20642;-80
2023/11/26 09:37:48;;;;;;;41.70;37.50;;;;;;;;;;5058142;28;20225;-81
2023/11/26 09:40:15;;;;;;;41.28;36.25;;;;;;;;;;5051835;28;20660;-77
2023/11/26 09:42:45;;;;;;;41.42;37.35;;;;;;;;;;5055949;28;20224;-79
2023/11/26 09:45:12;;;;;;;42.92;38.35;;;;;;;;;;5054381;28;20196;-77
2023/11/26 09:47:39;;;;;;;44.33;38.00;;;;;;;;;;5054047;28;20243;-77
2023/11/26 09:50:09;;;;;;;38.17;33.47;;;;;;;;;;5053906;28;20219;-76
2023/11/26 09:52:37;;;;;;;44.17;39.47;;;;;;;;;;5053822;28;20652;-76
2023/11/26 09:55:04;;;;;;;38.00;34.15;;;;;;;;;;5053250;28;20208;-76
2023/11/26 09:57:33;;;;;;;42.38;38.15;;;;;;;;;;5054049;28;20228;-76
2023/11/26 10:00:01;;;;;;;40.35;36.53;;;;;;;;;;5053762;28;20664;-76
2023/11/26 10:02:28;;;;;;;44.47;39.90;;;;;;;;;;5053389;28;20228;-76
2023/11/26 10:04:55;;;;;;;36.28;32.72;;;;;;;;;;5052724;28;20204;-77
2023/11/26 10:07:35;;;;;;;37.80;34.30;;;;;;;;;;5053298;28;20579;-77
2023/11/26 10:10:04;;;;;;;35.05;31.63;;;;;;;;;;5053334;28;20622;-77
2023/11/26 10:12:31;;;;;;;30.58;27.98;;;;;;;;;;5053812;28;20212;-77
2023/11/26 10:15:06;;;;;;;31.90;28.98;;;;;;;;;;5052800;28;20283;-77
2023/11/26 10:17:34;;;;;;;31.42;28.50;;;;;;;;;;5053648;28;20227;-77
2023/11/26 10:20:17;;;;;;;30.70;27.80;;;;;;;;;;5053845;28;20261;-76
2023/11/26 10:22:47;;;;;;;31.98;29.13;;;;;;;;;;5053622;28;20691;-78
2023/11/26 10:25:14;;;;;;;32.67;29.08;;;;;;;;;;5053401;28;20236;-78
2023/11/26 10:27:43;;;;;;;30.45;27.88;;;;;;;;;;5053377;28;20227;-76
2023/11/26 10:30:11;;;;;;;30.15;27.23;;;;;;;;;;5053992;28;20269;-78
2023/11/26 10:32:55;;;;;;;33.55;30.38;;;;;;;;;;5052899;28;20211;-77
2023/11/26 10:35:23;;;;;;;31.70;28.08;;;;;;;;;;5056644;28;20250;-76
2023/11/26 10:37:51;;;;;;;38.60;35.40;;;;;;;;;;5053413;28;20231;-77
2023/11/26 10:40:19;;;;;;;40.30;36.78;;;;;;;;;;5060226;28;20257;-77
2023/11/26 10:42:46;;;;;;;48.50;41.22;;;;;;;;;;5074058;28;20269;-75
2023/11/26 10:45:13;;;;;;;28.50;26.10;;;;;;;;;;5071888;28;20261;-76
2023/11/26 10:47:41;;;;;;;29.70;26.65;;;;;;;;;;5072396;28;20227;-76
2023/11/26 10:50:10;;;;;;;29.23;26.90;;;;;;;;;;5073005;28;20192;-75
2023/11/26 10:52:40;;;;;;;29.02;26.60;;;;;;;;;;5072464;28;20291;-76
2023/11/26 10:55:10;;;;;;;26.05;23.90;;;;;;;;;;5071770;28;20214;-76
2023/11/26 10:57:39;;;;;;;27.50;25.33;;;;;;;;;;5073009;28;20231;-76
2023/11/26 11:00:08;;;;;;;26.73;24.50;;;;;;;;;;5071914;28;20246;-76
2023/11/26 11:02:37;;;;;;;28.50;26.00;;;;;;;;;;5072178;28;20741;-76
2023/11/26 11:05:06;;;;;;;25.27;23.38;;;;;;;;;;5071877;28;20227;-76
2023/11/26 11:07:35;;;;;;;22.02;20.67;;;;;;;;;;5072803;28;20269;-75
2023/11/26 11:10:07;;;;;;;28.83;26.45;;;;;;;;;;5072511;28;20234;-75
2023/11/26 11:12:43;;;;;;;28.73;26.30;;;;;;;;;;5072485;28;20211;-76
2023/11/26 11:15:10;;;;;;;27.50;24.53;;;;;;;;;;5071103;28;20856;-76
2023/11/26 11:17:37;;;;;;;30.27;27.20;;;;;;;;;;5072722;28;20462;-75
2023/11/26 11:20:06;;;;;;;29.25;27.05;;;;;;;;;;5072577;28;20211;-76
2023/11/26 11:22:34;;;;;;;28.33;25.33;;;;;;;;;;5072860;28;20237;-76
2023/11/26 11:25:08;;;;;;;27.75;25.13;;;;;;;;;;5072021;28;20678;-76
2023/11/26 11:27:53;;;;;;;26.55;24.40;;;;;;;;;;5071753;28;20314;-77
2023/11/26 11:30:39;;;;;;;27.30;25.00;;;;;;;;;;5072329;28;20253;-76
2023/11/26 11:33:06;;;;;;;25.60;23.73;;;;;;;;;;5071538;28;20208;-76
2023/11/26 11:35:37;;;;;;;25.98;24.02;;;;;;;;;;5071801;28;20266;-76
2023/11/26 11:38:04;;;;;;;26.40;24.20;;;;;;;;;;5072137;28;20234;-76
2023/11/26 11:40:46;;;;;;;27.17;24.73;;;;;;;;;;5072283;28;20632;-76
2023/11/26 11:43:18;;;;;;;34.33;30.77;;;;;;;;;;5071547;28;20712;-77
2023/11/26 11:45:45;;;;;;;25.88;23.83;;;;;;;;;;5071312;28;20210;-78
2023/11/26 11:48:32;;;;;;;24.35;22.50;;;;;;;;;;5071776;28;20701;-75
2023/11/26 11:50:59;;;;;;;25.00;22.90;;;;;;;;;;5070962;28;20575;-77
2023/11/26 11:53:26;;;;;;;22.55;20.95;;;;;;;;;;5072352;28;21017;-76
2023/11/26 11:55:59;;;;;;;26.63;24.27;;;;;;;;;;5071592;28;20207;-76
2023/11/26 11:58:28;;;;;;;24.03;22.10;;;;;;;;;;5072266;28;20263;-77
2023/11/26 12:00:58;;;;;;;31.25;28.58;;;;;;;;;;5071694;28;21079;-76
2023/11/26 12:03:25;;;;;;;25.25;23.35;;;;;;;;;;5071527;28;20999;-76
2023/11/26 12:05:52;;;;;;;25.52;23.00;;;;;;;;;;5071277;28;20212;-75
2023/11/26 12:08:20;;;;;;;23.75;22.25;;;;;;;;;;5071704;28;20211;-76
2023/11/26 12:10:47;;;;;;;28.87;26.07;;;;;;;;;;5071252;28;20675;-76
2023/11/26 12:13:14;;;;;;;23.87;21.60;;;;;;;;;;5070887;28;20461;-76
2023/11/26 12:15:54;;;;;;;26.03;23.97;;;;;;;;;;5071109;28;20430;-77
2023/11/26 12:18:21;;;;;;;25.70;23.10;;;;;;;;;;5071494;28;20442;-77
2023/11/26 12:20:48;;;;;;;27.98;25.83;;;;;;;;;;5074321;28;20203;-79
2023/11/26 12:23:16;;;;;;;24.25;22.50;;;;;;;;;;5079694;28;20620;-80
2023/11/26 12:25:52;;;;;;;24.48;22.27;;;;;;;;;;5067841;28;20640;-80
2023/11/26 12:28:19;;;;;;;24.45;22.38;;;;;;;;;;5062770;28;20941;-80
2023/11/26 12:30:56;;;;;;;23.52;21.60;;;;;;;;;;5068250;28;20218;-80
2023/11/26 12:33:24;;;;;;;23.35;21.20;;;;;;;;;;5073365;28;20325;-80
2023/11/26 12:35:51;;;;;;;24.57;22.70;;;;;;;;;;5065137;28;20227;-80
2023/11/26 12:38:24;;;;;;;25.20;23.25;;;;;;;;;;5061448;28;20450;-79
2023/11/26 12:40:51;;;;;;;24.95;23.02;;;;;;;;;;5060800;28;20252;-80
2023/11/26 12:43:19;;;;;;;23.53;21.83;;;;;;;;;;5058166;28;20247;-79
2023/11/26 12:45:48;;;;;;;26.08;24.20;;;;;;;;;;5056134;28;20470;-80
2023/11/26 12:48:15;;;;;;;17.60;16.80;;;;;;;;;;5056277;28;20224;-79
2023/11/26 12:50:43;;;;;;;22.13;20.77;;;;;;;;;;5057294;28;20314;-79
2023/11/26 12:53:13;;;;;;;24.60;22.60;;;;;;;;;;5056758;28;20664;-78
2023/11/26 12:55:44;;;;;;;24.05;22.30;;;;;;;;;;5056457;28;20212;-79
2023/11/26 12:58:18;;;;;;;21.57;20.13;;;;;;;;;;5056467;28;20224;-79
2023/11/26 13:00:45;;;;;;;21.83;20.38;;;;;;;;;;5056153;28;20447;-78
2023/11/26 13:03:15;;;;;;;23.60;21.50;;;;;;;;;;5057148;28;20216;-79
2023/11/26 13:05:42;;;;;;;25.45;23.35;;;;;;;;;;5056045;28;20192;-79
2023/11/26 13:08:20;;;;;;;25.30;23.13;;;;;;;;;;5060215;28;20224;-79
2023/11/26 13:10:48;;;;;;;25.30;23.30;;;;;;;;;;5061029;28;20239;-80
2023/11/26 13:13:21;;;;;;;24.15;22.58;;;;;;;;;;5061807;28;20222;-80
2023/11/26 13:15:48;;;;;;;27.23;25.00;;;;;;;;;;5060196;28;20200;-79
2023/11/26 13:18:17;;;;;;;24.15;22.30;;;;;;;;;;5065218;28;20450;-80
2023/11/26 13:20:45;;;;;;;24.77;22.53;;;;;;;;;;5065261;28;20203;-80
2023/11/26 13:23:12;;;;;;;24.75;23.23;;;;;;;;;;5064662;28;20479;-79
2023/11/26 13:25:39;;;;;;;25.90;23.63;;;;;;;;;;5063566;28;20950;-79
2023/11/26 13:28:07;;;;;;;23.77;22.00;;;;;;;;;;5063797;28;20227;-79
2023/11/26 13:30:38;;;;;;;26.33;24.00;;;;;;;;;;5063673;28;20244;-80
2023/11/26 13:33:05;;;;;;;20.63;19.10;;;;;;;;;;5064898;28;20200;-80
2023/11/26 13:35:34;;;;;;;22.45;20.52;;;;;;;;;;5063079;28;20212;-79
2023/11/26 13:38:02;;;;;;;24.80;23.00;;;;;;;;;;5064061;28;20235;-80
2023/11/26 13:40:29;;;;;;;23.00;21.50;;;;;;;;;;5063288;28;20345;-78
2023/11/26 13:42:56;;;;;;;23.08;21.48;;;;;;;;;;5063216;28;20220;-78
2023/11/26 13:45:24;;;;;;;26.50;24.40;;;;;;;;;;5063466;28;20254;-78
2023/11/26 13:47:54;;;;;;;25.05;23.05;;;;;;;;;;5063999;28;20232;-79
2023/11/26 13:50:21;;;;;;;23.90;22.23;;;;;;;;;;5064489;28;20215;-79
2023/11/26 13:52:50;;;;;;;26.02;23.92;;;;;;;;;;5064072;28;20215;-80
2023/11/26 13:55:17;;;;;;;26.92;24.13;;;;;;;;;;5063273;28;20227;-80
2023/11/26 13:57:44;;;;;;;24.38;22.75;;;;;;;;;;5063727;28;20220;-80
2023/11/26 14:00:11;;;;;;;25.37;23.20;;;;;;;;;;5063810;28;20213;-78
2023/11/26 14:02:39;;;;;;;25.90;24.00;;;;;;;;;;5064405;28;20490;-80
2023/11/26 14:05:11;;;;;;;24.60;22.38;;;;;;;;;;5063122;28;20208;-81
2023/11/26 14:07:38;;;;;;;25.38;23.58;;;;;;;;;;5063546;28;20290;-80
2023/11/26 14:10:09;;;;;;;26.98;24.52;;;;;;;;;;5063742;28;20200;-80
2023/11/26 14:12:36;;;;;;;26.13;24.23;;;;;;;;;;5061866;28;20276;-79
2023/11/26 14:15:03;;;;;;;26.80;24.80;;;;;;;;;;5061144;28;20208;-80
2023/11/26 14:17:30;;;;;;;28.23;25.95;;;;;;;;;;5062222;28;20338;-80
2023/11/26 14:19:58;;;;;;;23.83;21.98;;;;;;;;;;5060282;28;20212;-80
2023/11/26 14:22:26;;;;;;;28.80;25.85;;;;;;;;;;5060805;28;20259;-80
2023/11/26 14:24:54;;;;;;;27.15;24.83;;;;;;;;;;5061331;28;20276;-79